Time;durP1;ratioP1;P1;durP2;ratioP2;P2;SDS_P1;SDS_P2;PMS_P1;PMS_P2;Temp;Humidity;BMP_temperature;BMP_pressure;BME280_temperature;BME280_humidity;BME280_pressure;Samples;Min_cycle;Max_cycle;Signal;HPM_P1;HPM_P2
2021/06/02 00:00:32;;;;;;;11.90;6.28;;;11.90;99.90;;;11.41;65.41;97315.69;5061890;28;20029;-70
2021/06/02 00:03:39;;;;;;;11.25;5.80;;;11.80;99.90;;;11.46;65.50;97316.28;5051054;28;20047;-71
2021/06/02 00:06:45;;;;;;;11.57;5.20;;;11.80;99.90;;;11.44;65.40;97321.53;5061902;28;20525;-70
2021/06/02 00:09:52;;;;;;;9.43;4.55;;;11.80;99.90;;;11.30;65.86;97321.41;5064486;28;20037;-71
2021/06/02 00:12:40;;;;;;;8.90;4.47;;;11.70;99.90;;;11.54;64.30;97315.88;5050177;28;20052;-71
2021/06/02 00:15:27;;;;;;;6.85;3.90;;;11.80;99.90;;;11.38;65.38;97315.81;5052047;28;20150;-71
2021/06/02 00:18:16;;;;;;;8.43;3.63;;;11.80;99.90;;;11.29;65.57;97304.97;5065502;28;20043;-70
2021/06/02 00:21:06;;;;;;;6.78;3.95;;;11.80;99.90;;;11.21;66.56;97314.06;5057442;28;20070;-71
2021/06/02 00:23:54;;;;;;;8.23;4.28;;;11.70;99.90;;;11.15;66.50;97312.59;5062248;28;20135;-71
2021/06/02 00:26:43;;;;;;;6.93;3.10;;;11.60;99.90;;;11.05;66.39;97309.59;5066027;28;20059;-71
2021/06/02 00:29:35;;;;;;;5.10;3.38;;;11.50;99.90;;;11.04;66.74;97307.94;5067263;28;20082;-71
2021/06/02 00:32:23;;;;;;;7.63;3.45;;;11.50;99.90;;;10.91;66.82;97314.63;5063632;28;20095;-71
2021/06/02 00:35:11;;;;;;;6.40;3.47;;;11.50;99.90;;;10.69;67.78;97314.81;5037300;28;20503;-71
2021/06/02 00:37:59;;;;;;;7.07;4.20;;;11.30;99.90;;;10.74;67.66;97309.41;5064015;28;20028;-71
2021/06/02 00:40:50;;;;;;;8.82;3.88;;;11.20;99.90;;;10.83;67.50;97309.81;5053298;28;20072;-71
2021/06/02 00:43:38;;;;;;;8.48;4.07;;;11.20;99.90;;;10.70;68.12;97306.13;5052239;28;20051;-71
2021/06/02 00:46:26;;;;;;;7.95;3.92;;;11.20;99.90;;;10.28;69.85;97307.16;5052807;28;20494;-71
2021/06/02 00:49:23;;;;;;;8.60;4.28;;;11.10;99.90;;;10.56;68.42;97305.91;5064340;28;20451;-71
2021/06/02 00:52:11;;;;;;;8.73;3.80;;;11.10;99.90;;;10.35;69.61;97302.56;5063120;28;20044;-71
2021/06/02 00:54:58;;;;;;;5.70;3.50;;;11.10;99.90;;;10.68;67.36;97300.16;5066201;28;20040;-71
2021/06/02 00:57:51;;;;;;;6.53;3.17;;;11.10;99.90;;;10.49;68.54;97299.34;5043219;28;20218;-71
2021/06/02 01:00:39;;;;;;;4.75;3.08;;;11.10;99.90;;;10.55;67.72;97302.47;5047087;28;20044;-71
2021/06/02 01:03:35;;;;;;;6.28;3.05;;;11.10;99.90;;;10.62;67.73;97306.47;5045437;28;20033;-71
2021/06/02 01:06:27;;;;;;;5.05;3.15;;;11.10;99.90;;;10.48;68.47;97297.66;5041369;28;20033;-71
2021/06/02 01:09:23;;;;;;;7.07;2.78;;;11.10;99.90;;;10.65;67.46;97298.56;5046146;28;20045;-71
2021/06/02 01:12:14;;;;;;;5.72;2.55;;;11.10;99.90;;;10.23;69.27;97299.59;5047216;28;20045;-71
2021/06/02 01:15:02;;;;;;;6.80;3.50;;;11.10;99.90;;;10.17;69.80;97297.28;5047790;28;20052;-71
2021/06/02 01:17:49;;;;;;;9.63;3.78;;;11.00;99.90;;;10.22;69.26;97287.53;5033792;28;20052;-71
2021/06/02 01:20:38;;;;;;;5.50;3.10;;;10.90;99.90;;;10.47;68.09;97302.03;5046828;28;20036;-71
2021/06/02 01:23:25;;;;;;;5.78;3.10;;;10.90;99.90;;;10.31;68.74;97304.47;5033627;28;20430;-71
2021/06/02 01:26:13;;;;;;;4.65;2.65;;;11.00;99.90;;;10.20;69.40;97302.34;5036929;28;20041;-71
2021/06/02 01:29:00;;;;;;;6.38;2.65;;;11.00;99.90;;;10.48;67.77;97302.84;5032935;28;20146;-71
2021/06/02 01:32:30;;;;;;;6.80;2.55;;;10.90;99.90;;;10.52;67.42;97302.63;5042956;28;20088;-71
2021/06/02 01:35:56;;;;;;;3.92;2.58;;;11.00;99.90;;;10.30;68.86;97299.34;5035945;28;20078;-71
2021/06/02 01:39:02;;;;;;;4.28;2.58;;;10.90;99.90;;;10.09;69.61;97311.50;5044543;28;20045;-71
2021/06/02 01:42:21;;;;;;;5.13;2.70;;;10.80;99.90;;;9.94;69.66;97307.84;5031268;28;20522;-71
2021/06/02 01:46:11;;;;;;;6.80;2.78;;;10.60;99.90;;;10.03;70.19;97305.69;5034756;28;20060;-70
2021/06/02 01:49:42;;;;;;;5.13;2.80;;;10.50;99.90;;;9.98;69.63;97305.03;4986332;28;20524;-71
2021/06/02 01:53:14;;;;;;;3.20;2.33;;;10.50;99.90;;;9.88;69.47;97308.13;5039075;28;20556;-71
2021/06/02 01:56:32;;;;;;;4.72;2.63;;;10.40;99.90;;;9.74;69.97;97313.88;5045336;28;20330;-71
2021/06/02 02:00:07;;;;;;;4.80;2.38;;;10.30;99.90;;;9.69;70.91;97308.06;5033503;28;20050;-71
2021/06/02 02:03:29;;;;;;;7.00;2.63;;;10.30;99.90;;;9.58;71.70;97316.34;4988155;28;20053;-71
2021/06/02 02:07:13;;;;;;;6.35;3.42;;;10.20;99.90;;;9.35;72.61;97312.97;5032065;28;20084;-71
2021/06/02 02:10:58;;;;;;;5.35;2.90;;;10.00;99.90;;;9.24;72.64;97317.75;5030528;28;20033;-71
2021/06/02 02:14:16;;;;;;;4.28;2.50;;;9.90;99.90;;;9.18;71.72;97315.41;5028050;28;20294;-71
2021/06/02 02:17:15;;;;;;;6.53;2.67;;;9.90;99.90;;;9.40;71.25;97313.59;5033657;28;20131;-70
2021/06/02 02:20:03;;;;;;;2.85;2.20;;;9.90;99.90;;;9.36;70.65;97309.44;5038442;28;20106;-71
2021/06/02 02:22:58;;;;;;;4.10;2.72;;;9.90;99.90;;;8.96;72.84;97307.66;5049669;28;20049;-71
2021/06/02 02:25:53;;;;;;;4.88;2.97;;;9.70;99.90;;;8.85;74.31;97310.69;5034901;28;20044;-71
2021/06/02 02:28:50;;;;;;;6.65;3.00;;;9.50;99.90;;;8.90;74.37;97313.09;5044963;28;20108;-71
2021/06/02 02:31:46;;;;;;;5.00;3.08;;;9.40;99.90;;;8.79;75.32;97311.75;5039038;28;20051;-70
2021/06/02 02:34:57;;;;;;;7.60;2.90;;;9.30;99.90;;;8.88;75.59;97312.31;5043392;28;20387;-71
2021/06/02 02:37:59;;;;;;;5.03;2.60;;;9.30;99.90;;;9.10;74.98;97307.09;5030790;28;20057;-71
2021/06/02 02:41:05;;;;;;;6.38;2.47;;;9.40;99.90;;;9.08;75.13;97312.34;5038927;28;20038;-71
2021/06/02 02:44:07;;;;;;;4.55;2.53;;;9.60;99.90;;;8.77;75.42;97316.16;5033037;28;20033;-71
2021/06/02 02:47:27;;;;;;;7.20;2.72;;;9.40;99.90;;;8.87;75.17;97314.06;5035730;28;20038;-70
2021/06/02 02:50:30;;;;;;;6.95;2.25;;;9.50;99.90;;;8.55;74.27;97323.06;5038930;28;20112;-71
2021/06/02 02:53:58;;;;;;;4.65;2.58;;;9.40;99.90;;;8.58;75.60;97320.38;5047788;28;20073;-71
2021/06/02 02:57:20;;;;;;;4.30;2.42;;;9.30;99.90;;;8.70;74.21;97321.63;5020041;28;20064;-71
2021/06/02 03:00:08;;;;;;;3.05;1.75;;;9.30;99.90;;;8.84;73.27;97326.28;5033047;28;20091;-71
2021/06/02 03:02:54;;;;;;;3.47;2.42;;;9.30;99.90;;;8.71;73.73;97325.91;5034418;28;20123;-71
2021/06/02 03:05:27;;;;;;;3.28;1.95;;;9.30;99.90;;;8.68;73.14;97329.44;5048045;28;20064;-71
2021/06/02 03:08:14;;;;;;;4.13;2.30;;;9.30;99.90;;;8.74;73.29;97336.16;5064881;28;20413;-71
2021/06/02 03:11:00;;;;;;;6.63;2.10;;;9.30;99.90;;;8.78;74.11;97333.38;5033195;28;20041;-71
2021/06/02 03:14:05;;;;;;;4.13;3.00;;;9.30;99.90;;;8.75;75.16;97333.47;5038801;28;20052;-71
2021/06/02 03:17:07;;;;;;;4.30;2.15;;;9.30;99.90;;;8.59;74.51;97335.81;5041842;28;20566;-71
2021/06/02 03:20:14;;;;;;;4.93;2.30;;;9.20;99.90;;;8.16;75.63;97332.25;5038122;28;20056;-71
2021/06/02 03:23:01;;;;;;;5.82;2.55;;;9.00;99.90;;;8.31;75.52;97335.16;5031253;28;20442;-71
2021/06/02 03:25:53;;;;;;;4.47;2.55;;;8.90;99.90;;;8.39;74.96;97335.69;5030916;28;20419;-70
2021/06/02 03:29:14;;;;;;;6.28;2.67;;;8.90;99.90;;;8.46;74.93;97338.94;5046016;28;20534;-71
2021/06/02 03:32:24;;;;;;;4.47;2.25;;;8.90;99.90;;;8.46;74.89;97333.75;5047066;28;20041;-71
2021/06/02 03:35:44;;;;;;;4.40;2.58;;;9.00;99.90;;;8.44;75.23;97338.16;5036275;28;20118;-71
2021/06/02 03:39:04;;;;;;;3.78;2.22;;;9.00;99.90;;;8.49;74.14;97331.09;5036080;28;20046;-71
2021/06/02 03:41:57;;;;;;;3.75;2.30;;;9.00;99.90;;;8.27;74.49;97338.75;5031429;28;20303;-71
2021/06/02 03:44:50;;;;;;;4.43;2.22;;;9.00;99.90;;;8.34;73.55;97338.47;5041034;28;20115;-71
2021/06/02 03:48:21;;;;;;;5.18;2.25;;;8.90;99.90;;;8.45;73.91;97347.63;5043305;28;20573;-71
2021/06/02 03:51:20;;;;;;;4.13;2.40;;;9.00;99.90;;;8.31;74.83;97348.09;5003215;28;20085;-71
2021/06/02 03:54:14;;;;;;;3.92;2.20;;;9.00;99.90;;;8.33;75.76;97348.88;5047410;28;20116;-71
2021/06/02 03:57:33;;;;;;;4.88;2.80;;;8.90;99.90;;;8.35;75.86;97350.50;5049228;28;20044;-71
2021/06/02 04:00:29;;;;;;;6.95;2.30;;;9.00;99.90;;;8.21;75.13;97346.75;5054083;28;20040;-71
2021/06/02 04:03:22;;;;;;;8.18;2.50;;;9.00;99.90;;;8.25;75.23;97349.16;5040484;28;20528;-71
2021/06/02 04:06:43;;;;;;;5.43;2.30;;;9.00;99.90;;;8.11;76.61;97359.16;5044404;28;20090;-71
2021/06/02 04:09:46;;;;;;;3.97;1.80;;;9.00;99.90;;;8.38;75.12;97350.38;5057214;28;20057;-71
2021/06/02 04:12:58;;;;;;;5.05;2.30;;;9.10;99.90;;;8.55;73.91;97351.53;5061648;28;20114;-71
2021/06/02 04:15:29;;;;;;;5.57;2.42;;;9.20;99.90;;;8.50;74.14;97345.69;5027401;28;20095;-72
2021/06/02 04:18:22;;;;;;;6.07;2.90;;;9.30;99.90;;;8.71;74.74;97352.66;5052722;28;20067;-71
2021/06/02 04:21:00;;;;;;;5.65;2.85;;;9.40;99.90;;;8.68;75.01;97344.16;5045941;28;20072;-71
2021/06/02 04:23:28;;;;;;;5.90;2.50;;;9.30;99.90;;;8.77;75.56;97354.97;5044187;28;20120;-71
2021/06/02 04:26:00;;;;;;;8.32;2.78;;;9.40;99.90;;;8.91;75.31;97358.78;5070714;28;20040;-70
2021/06/02 04:28:31;;;;;;;4.05;2.30;;;9.60;99.90;;;9.00;74.38;97354.06;5018868;28;20045;-71
2021/06/02 04:31:11;;;;;;;6.45;2.47;;;9.70;99.90;;;8.70;74.98;97356.13;5047395;28;20068;-71
2021/06/02 04:33:41;;;;;;;3.83;2.40;;;9.70;99.90;;;8.95;73.86;97355.16;5071218;28;20361;-71
2021/06/02 04:36:13;;;;;;;4.18;2.30;;;9.80;99.90;;;9.23;73.42;97349.72;5070470;28;20036;-71
2021/06/02 04:38:40;;;;;;;10.00;2.28;;;10.00;99.90;;;9.21;74.07;97360.16;5051543;28;20098;-71
2021/06/02 04:41:09;;;;;;;8.48;2.20;;;10.10;99.90;;;9.41;73.69;97353.28;5025886;28;20568;-72
2021/06/02 04:43:39;;;;;;;3.92;2.00;;;10.30;99.90;;;9.66;72.52;97358.28;5068728;28;20040;-71
2021/06/02 04:46:26;;;;;;;4.10;2.60;;;10.50;99.90;;;9.60;73.13;97358.53;5051514;28;20522;-71
2021/06/02 04:49:14;;;;;;;3.45;2.20;;;10.70;99.90;;;9.83;72.53;97360.19;5035685;28;20524;-70
2021/06/02 04:52:34;;;;;;;5.45;2.42;;;10.80;99.90;;;9.94;73.11;97364.88;5066444;28;20529;-71
2021/06/02 04:55:48;;;;;;;3.03;1.95;;;10.90;99.90;;;10.08;71.96;97357.38;5070048;28;20047;-71
2021/06/02 04:58:59;;;;;;;4.43;2.47;;;11.00;99.90;;;10.31;69.75;97364.16;5053132;28;20041;-71
2021/06/02 05:02:16;;;;;;;5.38;2.30;;;11.20;99.90;;;10.43;69.67;97363.59;5066307;28;20090;-72
2021/06/02 05:05:48;;;;;;;7.10;2.17;;;11.30;99.90;;;10.69;67.73;97358.94;5054635;28;20072;-71
2021/06/02 05:09:11;;;;;;;5.63;2.10;;;11.60;99.90;;;10.97;66.62;97374.09;5054277;28;20068;-71
2021/06/02 05:12:07;;;;;;;4.50;2.65;;;11.80;99.90;;;11.28;65.82;97370.00;5052373;28;20128;-71
2021/06/02 05:15:31;;;;;;;5.40;2.90;;;12.00;99.90;;;11.50;66.40;97372.41;5066271;28;20503;-71
2021/06/02 05:18:10;;;;;;;5.03;3.33;;;12.30;99.90;;;11.79;70.13;97377.88;5029384;28;20076;-71
2021/06/02 05:24:04;;;;;;;3.80;1.77;;;12.90;99.90;;;12.28;68.57;97380.59;5064082;28;20037;-71
2021/06/02 05:27:40;;;;;;;4.75;2.08;;;13.20;99.90;;;12.42;68.72;97382.47;5047278;28;20100;-71
2021/06/02 05:31:09;;;;;;;3.25;2.13;;;13.50;99.90;;;12.67;69.21;97376.78;5051745;28;20090;-71
2021/06/02 05:34:24;;;;;;;7.85;3.78;;;13.70;99.90;;;12.99;65.67;97380.22;5017293;28;20103;-72
2021/06/02 05:37:48;;;;;;;5.32;2.33;;;14.00;99.90;;;13.34;63.53;97385.25;5049652;28;20475;-71
2021/06/02 05:41:18;;;;;;;4.57;2.10;;;14.30;99.90;;;13.63;63.69;97380.97;5057562;28;20097;-72
2021/06/02 05:44:25;;;;;;;3.25;1.92;;;14.60;99.90;;;14.02;65.45;97379.56;5057367;28;20044;-70
2021/06/02 05:47:49;;;;;;;5.07;1.92;;;14.90;99.90;;;14.00;61.81;97384.88;5033578;28;20321;-70
2021/06/02 05:51:07;;;;;;;4.05;2.13;;;15.20;99.90;;;14.16;61.68;97383.94;5052826;28;20093;-70
2021/06/02 05:54:38;;;;;;;4.25;2.58;;;15.40;99.90;;;14.19;57.74;97379.41;5047856;28;20178;-69
2021/06/02 05:57:32;;;;;;;3.67;2.03;;;15.40;99.90;;;14.65;57.97;97383.59;5044390;28;20045;-70
2021/06/02 06:00:35;;;;;;;;;;;15.60;99.90;;;14.95;57.24;97372.16;5068389;28;20068;-70
2021/06/02 06:03:46;;;;;;;3.85;2.05;;;15.80;99.90;;;15.17;57.46;97377.69;5069376;28;19928;-70
2021/06/02 06:07:00;;;;;;;3.42;1.70;;;16.10;99.90;;;15.50;56.04;97380.84;5067023;28;20469;-70
2021/06/02 06:10:03;;;;;;;3.22;1.80;;;16.50;99.90;;;15.76;55.72;97384.34;5058548;28;20040;-69
2021/06/02 06:13:04;;;;;;;5.00;1.80;;;16.60;99.90;;;15.73;54.72;97379.34;5038193;28;20060;-70
2021/06/02 06:15:53;;;;;;;4.28;1.75;;;16.50;99.90;;;15.75;55.98;97382.69;5049442;28;20055;-70
2021/06/02 06:18:23;;;;;;;4.72;1.70;;;16.60;99.90;;;16.08;54.70;97374.38;5052103;28;20470;-70
2021/06/02 06:22:04;;;;;;;4.03;1.75;;;16.80;99.90;;;16.03;51.98;97371.19;5072654;28;20048;-69
2021/06/02 06:25:10;;;;;;;2.13;1.30;;;17.00;99.90;;;16.07;51.19;97377.91;5021565;28;20048;-70
2021/06/02 06:28:22;;;;;;;2.50;1.55;;;17.10;99.90;;;16.35;50.10;97379.47;5048604;28;20465;-70
2021/06/02 06:31:18;;;;;;;4.72;1.67;;;17.20;99.90;;;16.87;51.91;97375.84;5049029;28;20079;-70
2021/06/02 06:34:10;;;;;;;3.83;1.67;;;17.40;99.90;;;17.19;49.55;97366.59;5070377;28;20048;-70
2021/06/02 06:36:59;;;;;;;2.70;1.20;;;17.80;99.90;;;17.51;49.46;97378.19;5043800;28;20129;-69
2021/06/02 06:39:56;;;;;;;8.65;3.22;;;18.20;99.90;;;17.51;49.81;97374.72;5049432;28;20506;-69
2021/06/02 06:42:51;;;;;;;5.95;2.67;;;18.30;99.90;;;17.73;49.41;97380.06;5059050;28;20048;-69
2021/06/02 06:45:43;;;;;;;4.70;2.95;;;18.40;99.90;;;17.88;49.66;97385.13;5053917;28;20049;-70
2021/06/02 06:48:31;;;;;;;5.30;1.90;;;18.60;99.90;;;18.23;48.54;97373.75;5058297;28;20033;-70
2021/06/02 06:51:21;;;;;;;6.93;2.42;;;18.80;99.90;;;18.45;49.17;97370.28;5042402;28;20049;-70
2021/06/02 06:54:13;;;;;;;5.00;2.60;;;19.00;99.90;;;18.54;49.77;97374.81;5049228;28;20091;-69
2021/06/02 06:57:01;;;;;;;3.55;2.28;;;19.20;99.90;;;18.51;49.25;97369.81;5040848;28;20498;-69
2021/06/02 06:59:49;;;;;;;10.18;2.40;;;19.30;99.90;;;18.66;48.11;97371.25;5052525;28;20541;-69
2021/06/02 07:02:39;;;;;;;8.27;2.95;;;19.40;99.90;;;18.86;48.12;97364.47;5047568;28;20072;-70
2021/06/02 07:05:27;;;;;;;11.35;3.10;;;19.50;99.90;;;18.87;47.06;97370.53;5068251;28;20044;-70
2021/06/02 07:08:16;;;;;;;8.23;2.20;;;19.60;99.90;;;19.04;47.57;97370.00;5047168;28;20036;-70
2021/06/02 07:11:04;;;;;;;7.60;2.22;;;19.70;99.90;;;19.08;47.34;97376.72;5047342;28;20051;-71
2021/06/02 07:13:55;;;;;;;11.37;2.60;;;19.90;99.90;;;19.17;46.55;97375.13;5047458;28;20041;-70
2021/06/02 07:16:45;;;;;;;6.82;1.98;;;20.00;99.90;;;19.40;46.44;97375.91;5050415;28;20041;-70
2021/06/02 07:19:37;;;;;;;6.03;1.98;;;20.00;99.90;;;19.51;46.72;97375.84;5059249;28;20051;-70
2021/06/02 07:22:27;;;;;;;6.07;2.10;;;20.20;99.90;;;19.80;45.50;97373.47;5063198;28;20045;-70
2021/06/02 07:25:28;;;;;;;4.32;1.77;;;20.30;99.90;;;20.03;44.89;97376.81;5050494;28;20526;-71
2021/06/02 07:28:26;;;;;;;5.68;1.98;;;20.50;99.90;;;20.31;44.09;97376.28;5040210;28;20095;-70
2021/06/02 07:31:14;;;;;;;4.50;1.63;;;20.80;99.90;;;20.56;44.39;97375.84;5035911;28;20510;-71
2021/06/02 07:34:01;;;;;;;3.78;1.73;;;21.00;99.90;;;20.61;43.89;97373.66;5067715;28;20083;-71
2021/06/02 07:36:50;;;;;;;9.70;1.85;;;21.20;99.90;;;20.60;43.63;97377.28;5064350;28;20204;-70
2021/06/02 07:39:36;;;;;;;3.25;1.90;;;21.30;99.90;;;20.85;43.19;97380.41;5036865;28;20049;-71
2021/06/02 07:42:05;;;;;;;3.08;1.38;;;21.40;99.90;;;20.75;42.22;97380.38;5053598;28;20071;-71
2021/06/02 07:44:32;;;;;;;6.70;1.48;;;21.30;99.90;;;20.94;41.45;97376.97;5052857;28;20029;-71
2021/06/02 07:47:20;;;;;;;4.13;1.45;;;21.50;99.90;;;21.30;41.27;97386.06;5053164;28;20149;-71
2021/06/02 07:50:07;;;;;;;3.22;1.40;;;21.80;99.90;;;21.36;42.88;97395.22;5051607;28;20493;-71
2021/06/02 07:52:34;;;;;;;5.22;1.63;;;22.00;99.90;;;21.49;41.21;97392.38;5064143;28;20060;-71
2021/06/02 07:55:01;;;;;;;2.78;1.58;;;22.00;99.90;;;21.41;41.30;97389.56;5047834;28;20127;-71
2021/06/02 07:57:28;;;;;;;8.13;1.70;;;22.00;99.90;;;21.44;41.53;97392.78;5039660;28;20055;-71
2021/06/02 07:59:55;;;;;;;3.83;1.67;;;22.10;99.90;;;21.29;39.92;97392.28;5053756;28;20132;-70
2021/06/02 08:02:22;;;;;;;4.15;1.65;;;22.10;99.90;;;21.23;40.53;97390.22;5049162;28;20052;-71
2021/06/02 08:04:49;;;;;;;3.72;1.75;;;22.00;99.90;;;21.43;40.31;97398.19;5048861;28;20110;-71
2021/06/02 08:07:36;;;;;;;9.52;1.80;;;22.00;99.90;;;21.69;39.69;97394.03;5056858;28;20072;-71
2021/06/02 08:10:24;;;;;;;2.88;1.25;;;22.20;99.90;;;22.11;39.23;97400.78;5067737;28;20040;-71
2021/06/02 08:13:11;;;;;;;3.85;1.58;;;22.70;99.80;;;22.31;39.11;97399.81;5050379;28;20073;-71
2021/06/02 08:15:58;;;;;;;5.07;1.20;;;23.20;99.50;;;22.53;36.98;97393.34;5055657;28;20040;-71
2021/06/02 08:18:46;;;;;;;6.82;1.08;;;23.60;97.40;;;23.08;37.46;97395.22;5055545;28;20091;-71
2021/06/02 08:21:35;;;;;;;3.75;1.10;;;24.30;97.50;;;23.50;35.58;97394.63;5073769;28;20447;-71
2021/06/02 08:24:22;;;;;;;2.33;0.93;;;24.80;96.10;;;23.65;35.10;97394.97;5062039;28;20464;-71
2021/06/02 08:27:12;;;;;;;3.08;1.05;;;25.10;94.70;;;23.21;33.35;97394.84;5051507;28;20528;-71
2021/06/02 08:29:59;;;;;;;2.30;0.80;;;25.60;93.10;;;23.63;30.45;97390.75;5057644;28;20072;-71
2021/06/02 08:32:47;;;;;;;1.95;0.90;;;25.40;88.10;;;24.51;31.83;97398.78;5040018;28;20056;-71
2021/06/02 08:35:35;;;;;;;2.17;0.73;;;25.70;90.90;;;24.84;30.85;97394.47;5049923;28;20037;-72
2021/06/02 08:38:22;;;;;;;1.90;0.90;;;25.90;89.40;;;24.91;29.61;97395.50;5050073;28;20041;-71
2021/06/02 08:40:59;;;;;;;1.40;0.70;;;26.30;85.60;;;24.94;29.00;97397.00;5036769;28;20136;-71
2021/06/02 08:43:26;;;;;;;4.63;0.82;;;26.20;83.10;;;24.06;27.43;97400.59;5032281;28;20115;-71
2021/06/02 08:45:57;;;;;;;2.40;0.88;;;26.00;76.20;;;23.16;29.24;97411.16;5029533;28;20053;-71
2021/06/02 08:48:24;;;;;;;1.65;0.82;;;25.70;77.30;;;23.52;29.20;97402.44;5051197;28;20052;-72
2021/06/02 08:50:51;;;;;;;3.92;0.95;;;25.30;77.10;;;23.82;28.51;97405.72;5071021;28;20047;-71
2021/06/02 08:53:20;;;;;;;4.65;0.80;;;25.20;76.50;;;24.81;28.25;97400.94;5050449;28;20425;-72
2021/06/02 08:55:48;;;;;;;2.03;0.77;;;25.30;78.50;;;24.36;27.59;97401.97;5066970;28;20532;-71
2021/06/02 08:58:22;;;;;;;2.55;0.98;;;25.20;75.50;;;24.37;27.14;97400.97;5053298;28;20080;-71
2021/06/02 09:00:50;;;;;;;5.70;1.00;;;25.10;75.10;;;24.57;27.03;97408.75;5027381;28;20490;-71
2021/06/02 09:03:17;;;;;;;3.92;0.90;;;25.40;75.50;;;25.27;27.64;97400.59;5064351;28;20090;-72
2021/06/02 09:05:45;;;;;;;2.50;1.00;;;25.60;76.70;;;24.12;28.37;97407.13;5062958;28;20472;-71
2021/06/02 09:08:19;;;;;;;3.15;0.95;;;26.20;74.90;;;23.68;28.23;97410.53;5043969;28;20083;-71
2021/06/02 09:10:46;;;;;;;3.63;0.70;;;26.10;73.60;;;24.37;27.47;97400.16;5063308;28;20052;-71
2021/06/02 09:13:23;;;;;;;2.30;0.80;;;25.80;73.00;;;25.28;27.78;97396.97;5050199;28;20048;-71
2021/06/02 09:15:52;;;;;;;4.10;1.00;;;26.10;74.30;;;23.68;28.96;97407.91;5046418;28;20048;-71
2021/06/02 09:18:22;;;;;;;5.63;1.00;;;26.60;72.40;;;24.95;27.70;97394.19;5051934;28;20045;-71
2021/06/02 09:20:57;;;;;;;2.08;0.88;;;26.60;73.10;;;25.99;25.90;97398.22;5042589;28;20049;-72
2021/06/02 09:23:44;;;;;;;2.83;0.73;;;26.20;71.90;;;26.33;26.71;97394.53;5062273;28;20046;-72
2021/06/02 09:26:11;;;;;;;2.97;0.80;;;26.30;74.00;;;25.93;27.35;97392.72;5026894;28;20048;-71
2021/06/02 09:28:46;;;;;;;10.30;1.10;;;26.30;73.70;;;24.41;28.00;97410.28;5064066;28;20414;-72
2021/06/02 09:31:35;;;;;;;3.45;0.80;;;26.50;73.40;;;26.33;26.84;97396.34;5049224;28;20090;-72
2021/06/02 09:34:14;;;;;;;8.05;1.00;;;26.70;72.90;;;25.54;26.93;97393.34;5045770;28;20048;-72
2021/06/02 09:36:44;;;;;;;14.68;1.70;;;26.80;71.80;;;24.47;28.67;97400.91;5050299;28;20045;-72
2021/06/02 09:39:15;;;;;;;8.93;1.20;;;27.00;71.60;;;24.73;28.81;97403.53;5040273;28;20036;-72
2021/06/02 09:41:49;;;;;;;1.55;0.70;;;26.80;71.50;;;24.79;27.96;97399.41;5034136;28;20399;-71
2021/06/02 09:44:29;;;;;;;4.85;1.05;;;26.80;71.20;;;25.08;27.49;97396.38;5013387;28;20063;-72
2021/06/02 09:47:10;;;;;;;1.67;0.73;;;27.20;71.50;;;26.65;27.14;97406.13;5057166;28;20048;-71
2021/06/02 09:49:54;;;;;;;3.72;1.00;;;27.50;72.00;;;26.72;26.52;97403.59;5057467;28;20553;-72
2021/06/02 09:52:48;;;;;;;1.80;0.85;;;27.60;70.50;;;26.54;27.01;97398.47;5036545;28;20426;-71
2021/06/02 09:55:41;;;;;;;3.40;0.70;;;27.70;69.80;;;25.34;27.33;97401.63;5037569;28;20474;-72
2021/06/02 09:58:29;;;;;;;2.75;0.90;;;27.80;69.90;;;26.83;27.36;97400.56;5058023;28;20041;-71
2021/06/02 10:01:16;;;;;;;3.35;0.80;;;28.10;72.00;;;24.45;29.50;97407.31;5059066;28;20044;-71
2021/06/02 10:04:11;;;;;;;3.60;1.00;;;28.10;68.30;;;24.70;29.38;97411.81;5053450;28;20114;-71
2021/06/02 10:06:59;;;;;;;2.20;0.90;;;27.70;69.50;;;25.14;29.94;97418.81;5055198;28;20552;-71
2021/06/02 10:09:48;;;;;;;5.18;1.13;;;27.10;71.90;;;24.33;32.39;97407.56;5045033;28;20040;-71
2021/06/02 10:12:35;;;;;;;2.22;0.80;;;27.60;73.20;;;25.64;31.70;97400.19;5061088;28;20451;-71
2021/06/02 10:15:42;;;;;;;1.55;0.90;;;28.00;73.80;;;28.09;27.95;97396.84;5051223;28;20478;-71
2021/06/02 10:18:33;;;;;;;3.17;0.90;;;28.90;73.70;;;28.58;25.57;97396.38;5056233;28;20041;-71
2021/06/02 10:21:20;;;;;;;1.70;0.88;;;30.00;69.40;;;26.68;29.02;97408.44;5051298;28;20587;-72
2021/06/02 10:24:08;;;;;;;2.70;1.10;;;30.20;70.00;;;24.35;31.11;97410.09;5049731;28;20063;-72
2021/06/02 10:26:55;;;;;;;3.72;1.00;;;29.80;67.60;;;25.31;29.76;97396.63;5059849;28;20037;-71
2021/06/02 10:29:42;;;;;;;1.92;0.93;;;29.30;67.90;;;26.65;28.02;97406.94;5054382;28;20038;-72
2021/06/02 10:32:30;;;;;;;2.63;0.77;;;28.90;68.80;;;26.78;28.50;97405.59;5053468;28;20039;-72
2021/06/02 10:35:17;;;;;;;3.72;0.80;;;28.80;69.50;;;26.72;28.47;97408.94;5033570;28;20040;-71
2021/06/02 10:38:06;;;;;;;1.95;0.90;;;28.80;69.10;;;27.85;27.38;97404.03;5022777;28;20141;-70
2021/06/02 10:40:54;;;;;;;2.17;0.90;;;28.50;69.90;;;28.03;27.77;97406.41;5055740;28;20390;-70
2021/06/02 10:43:48;;;;;;;1.58;0.90;;;28.30;72.30;;;29.26;27.17;97406.94;5048630;28;20059;-71
2021/06/02 10:46:41;;;;;;;3.65;0.90;;;29.20;72.70;;;29.86;27.30;97405.75;5048935;28;20095;-71
2021/06/02 10:49:37;;;;;;;2.83;1.00;;;30.20;72.60;;;26.26;27.13;97412.16;5042240;28;20474;-71
2021/06/02 10:52:42;;;;;;;5.65;1.13;;;30.10;66.20;;;28.38;26.25;97403.25;5051547;28;20037;-71
2021/06/02 10:55:43;;;;;;;3.65;0.82;;;29.90;67.40;;;28.61;27.81;97404.03;5054329;28;20044;-71
2021/06/02 10:58:33;;;;;;;2.70;0.80;;;30.90;68.80;;;29.38;25.58;97411.59;5052956;28;20052;-71
2021/06/02 11:01:21;;;;;;;2.58;0.90;;;31.90;68.80;;;27.95;27.86;97407.28;5047775;28;20223;-72
2021/06/02 11:04:10;;;;;;;4.18;1.00;;;31.50;66.50;;;30.08;25.61;97400.34;5046873;28;20116;-71
2021/06/02 11:07:30;;;;;;;1.73;0.68;;;31.40;67.50;;;30.43;24.08;97399.44;5057292;28;20036;-71
2021/06/02 11:10:17;;;;;;;1.77;0.75;;;32.10;65.10;;;31.02;23.11;97398.13;5053557;28;20045;-71
2021/06/02 11:13:06;;;;;;;3.55;0.90;;;32.40;63.80;;;31.23;24.20;97399.84;5053390;28;20130;-71
2021/06/02 11:15:52;;;;;;;1.77;0.80;;;32.50;66.10;;;30.47;24.27;97397.16;5038789;28;20095;-71
2021/06/02 11:18:21;;;;;;;3.50;0.88;;;31.80;64.80;;;27.70;27.27;97401.28;5057312;28;20059;-72
2021/06/02 11:20:58;;;;;;;4.30;0.90;;;31.70;64.20;;;26.96;26.96;97405.34;5055825;28;20040;-71
2021/06/02 11:23:38;;;;;;;2.28;1.08;;;31.60;62.10;;;27.36;28.35;97401.66;5037168;28;20052;-71
2021/06/02 11:26:24;;;;;;;2.60;0.80;;;31.40;63.80;;;26.89;27.34;97408.72;5059120;28;20060;-71
2021/06/02 11:28:52;;;;;;;2.47;0.82;;;31.40;62.10;;;27.25;27.78;97400.22;5056994;28;20091;-71
2021/06/02 11:31:32;;;;;;;2.58;0.82;;;31.30;63.40;;;29.32;24.55;97398.97;5054602;28;20123;-71
2021/06/02 11:34:25;;;;;;;2.22;0.70;;;31.30;62.90;;;30.50;22.51;97396.78;5050266;28;20080;-71
2021/06/02 11:37:05;;;;;;;3.45;0.68;;;32.40;62.90;;;30.50;21.46;97396.78;5035906;28;20211;-71
2021/06/02 11:39:37;;;;;;;1.95;0.77;;;32.80;58.20;;;30.97;21.57;97405.09;5043417;28;20041;-72
2021/06/02 11:42:30;;;;;;;1.30;0.50;;;33.70;58.70;;;32.04;20.47;97390.16;5068458;28;20056;-71
2021/06/02 11:45:21;;;;;;;2.33;0.70;;;34.60;57.50;;;29.68;22.46;97394.66;5052264;28;20040;-72
2021/06/02 11:47:56;;;;;;;3.17;0.80;;;34.20;56.70;;;27.93;25.90;97398.63;5042249;28;20073;-70
2021/06/02 11:50:25;;;;;;;6.35;0.90;;;33.90;58.20;;;29.28;25.98;97387.00;5050198;28;20036;-72
2021/06/02 11:53:01;;;;;;;1.27;0.50;;;33.80;58.90;;;31.27;22.72;97385.03;5071648;28;20048;-69
2021/06/02 11:55:31;;;;;;;2.08;0.70;;;34.30;59.10;;;30.98;22.33;97388.84;5034564;28;20064;-72
2021/06/02 11:58:19;;;;;;;2.70;0.60;;;34.50;56.50;;;30.60;22.46;97391.06;5051387;28;20126;-69
2021/06/02 12:00:47;;;;;;;3.72;0.77;;;35.00;55.70;;;30.71;24.30;97390.53;5064596;28;20183;-72
2021/06/02 12:03:15;;;;;;;1.75;1.08;;;34.00;58.60;;;29.35;25.02;97403.13;5065623;28;20117;-70
2021/06/02 12:05:43;;;;;;;4.28;1.00;;;33.60;58.00;;;30.25;25.15;97396.38;5053139;28;20040;-71
2021/06/02 12:08:16;;;;;;;2.58;0.70;;;33.60;59.40;;;31.07;23.50;97396.72;5056679;28;20381;-72
2021/06/02 12:10:55;;;;;;;2.50;0.75;;;34.00;57.70;;;31.85;23.00;97389.91;5044002;28;20049;-70